Time;durP1;ratioP1;P1;durP2;ratioP2;P2;SDS_P1;SDS_P2;PMS_P1;PMS_P2;Temp;Humidity;BMP_temperature;BMP_pressure;BME280_temperature;BME280_humidity;BME280_pressure;Samples;Min_cycle;Max_cycle;Signal;HPM_P1;HPM_P2
2023/08/02 00:01:12;;;;;;;5.18;1.95;;;15.50;99.90;;;;;;5109612;28;20482;-64
2023/08/02 00:03:38;;;;;;;10.45;2.10;;;15.40;99.90;;;;;;5105826;28;20046;-65
2023/08/02 00:06:04;;;;;;;6.35;2.03;;;15.40;99.90;;;;;;5104328;28;20038;-64
2023/08/02 00:08:29;;;;;;;6.32;1.95;;;15.40;99.90;;;;;;5116079;27;20040;-65
2023/08/02 00:10:55;;;;;;;5.03;1.90;;;15.40;99.90;;;;;;5111228;27;20054;-64
2023/08/02 00:13:21;;;;;;;7.97;2.10;;;15.40;99.90;;;;;;5114231;27;20044;-64
2023/08/02 00:15:46;;;;;;;5.03;1.92;;;15.40;99.90;;;;;;5109941;27;20116;-64
2023/08/02 00:18:13;;;;;;;6.90;2.10;;;15.40;99.90;;;;;;5116657;27;20039;-65
2023/08/02 00:20:39;;;;;;;4.03;2.13;;;15.40;99.90;;;;;;5123511;27;20039;-65
2023/08/02 00:23:06;;;;;;;8.00;1.98;;;15.40;99.90;;;;;;5123808;27;20039;-64
2023/08/02 00:25:32;;;;;;;8.43;2.30;;;15.40;99.90;;;;;;5125426;27;20035;-64
2023/08/02 00:27:58;;;;;;;6.75;2.58;;;15.40;99.90;;;;;;5120287;27;20518;-64
2023/08/02 00:30:24;;;;;;;5.10;2.28;;;15.40;99.90;;;;;;5115106;27;20090;-64
2023/08/02 00:32:50;;;;;;;6.07;2.30;;;15.40;99.90;;;;;;5116265;28;20439;-64
2023/08/02 00:35:16;;;;;;;6.60;2.42;;;15.40;99.90;;;;;;5130740;27;20391;-65
2023/08/02 00:37:42;;;;;;;6.25;2.28;;;15.40;99.90;;;;;;5135320;27;20055;-64
2023/08/02 00:40:09;;;;;;;6.18;2.67;;;15.40;99.90;;;;;;5135504;27;20043;-64
2023/08/02 00:42:35;;;;;;;6.82;2.38;;;15.40;99.90;;;;;;5118302;27;20042;-64
2023/08/02 00:45:03;;;;;;;5.57;2.35;;;15.40;99.90;;;;;;5119304;27;20031;-65
2023/08/02 00:47:31;;;;;;;4.45;2.15;;;15.40;99.90;;;;;;5136438;27;20481;-65
2023/08/02 00:49:56;;;;;;;7.38;2.88;;;15.40;99.90;;;;;;5125847;27;20047;-65
2023/08/02 00:52:23;;;;;;;9.77;2.70;;;15.40;99.90;;;;;;5126366;27;20035;-64
2023/08/02 00:54:49;;;;;;;6.68;2.28;;;15.40;99.90;;;;;;5121242;27;20039;-65
2023/08/02 00:57:14;;;;;;;7.78;2.70;;;15.40;99.90;;;;;;5121725;27;20030;-64
2023/08/02 00:59:40;;;;;;;7.72;3.17;;;15.40;99.90;;;;;;5126009;27;20042;-64
2023/08/02 01:02:07;;;;;;;6.80;2.58;;;15.40;99.90;;;;;;5122963;27;20041;-65
2023/08/02 01:04:33;;;;;;;9.00;2.97;;;15.40;99.90;;;;;;5134993;27;20485;-64
2023/08/02 01:07:20;;;;;;;9.23;2.70;;;15.40;99.90;;;;;;5124601;27;20071;-65
2023/08/02 01:10:07;;;;;;;9.30;2.70;;;15.40;99.90;;;;;;5125999;27;20042;-64
2023/08/02 01:12:35;;;;;;;7.57;2.25;;;15.40;99.90;;;;;;5134531;27;20061;-65
2023/08/02 01:15:03;;;;;;;7.30;2.65;;;15.40;99.90;;;;;;5132225;27;20047;-64
2023/08/02 01:17:31;;;;;;;7.45;2.53;;;15.40;99.90;;;;;;5123527;27;20039;-64
2023/08/02 01:20:05;;;;;;;11.35;2.80;;;15.40;99.90;;;;;;5126474;27;20405;-65
2023/08/02 01:22:31;;;;;;;9.82;2.30;;;15.40;99.90;;;;;;5110390;27;20498;-65
2023/08/02 01:24:59;;;;;;;7.63;2.90;;;15.40;99.90;;;;;;5104939;27;20027;-64
2023/08/02 01:27:32;;;;;;;9.45;2.90;;;15.40;99.90;;;;;;5128671;27;20106;-65
2023/08/02 01:30:01;;;;;;;8.25;3.08;;;15.40;99.90;;;;;;5102869;27;20063;-64
2023/08/02 01:32:26;;;;;;;9.95;3.17;;;15.40;99.90;;;;;;5110704;28;20452;-64
2023/08/02 01:34:53;;;;;;;9.23;2.75;;;15.40;99.90;;;;;;5110352;28;20164;-65
2023/08/02 01:37:19;;;;;;;11.55;3.10;;;15.40;99.90;;;;;;5120719;27;20035;-64
2023/08/02 01:39:44;;;;;;;9.88;3.08;;;15.40;99.90;;;;;;5109560;28;20043;-64
2023/08/02 01:42:11;;;;;;;9.35;2.75;;;15.40;99.90;;;;;;5109925;28;20061;-64
2023/08/02 01:44:37;;;;;;;15.35;3.28;;;15.40;99.90;;;;;;5106255;27;20065;-64
2023/08/02 01:47:02;;;;;;;12.85;3.60;;;15.40;99.90;;;;;;5108435;27;20028;-65
2023/08/02 01:49:28;;;;;;;9.15;2.95;;;15.40;99.90;;;;;;5113965;27;20052;-65
2023/08/02 01:51:54;;;;;;;11.35;3.10;;;15.40;99.90;;;;;;5107989;28;20505;-64
2023/08/02 01:54:20;;;;;;;10.70;3.38;;;15.30;99.90;;;;;;5106776;28;20055;-65
2023/08/02 01:56:45;;;;;;;12.65;3.67;;;15.30;99.90;;;;;;5106748;28;20513;-65
2023/08/02 01:59:12;;;;;;;11.38;3.63;;;15.30;99.90;;;;;;5107504;28;20043;-64
2023/08/02 02:01:38;;;;;;;10.65;3.63;;;15.30;99.90;;;;;;5107343;28;20046;-64
2023/08/02 02:04:04;;;;;;;12.23;4.07;;;15.30;99.90;;;;;;5107047;27;20413;-64
2023/08/02 02:06:29;;;;;;;12.93;3.97;;;15.30;99.90;;;;;;5114985;27;20039;-64
2023/08/02 02:08:55;;;;;;;12.55;3.85;;;15.30;99.90;;;;;;5130097;27;20038;-64
2023/08/02 02:11:21;;;;;;;13.25;4.13;;;15.30;99.90;;;;;;5108456;27;20114;-64
2023/08/02 02:13:46;;;;;;;13.32;4.20;;;15.30;99.90;;;;;;5110312;27;20036;-64
2023/08/02 02:16:12;;;;;;;11.95;4.03;;;15.30;99.90;;;;;;5105924;27;20032;-64
2023/08/02 02:18:38;;;;;;;13.48;4.20;;;15.30;99.90;;;;;;5110086;28;20031;-64
2023/08/02 02:21:03;;;;;;;11.18;4.22;;;15.30;99.90;;;;;;5111490;27;20059;-65
2023/08/02 02:23:29;;;;;;;15.00;4.47;;;15.30;99.90;;;;;;5129669;27;20043;-64
2023/08/02 02:25:55;;;;;;;11.10;4.25;;;15.30;99.90;;;;;;5122367;27;20130;-65
2023/08/02 02:28:20;;;;;;;11.68;4.30;;;15.30;99.90;;;;;;5129463;27;20042;-64
2023/08/02 02:30:47;;;;;;;13.63;4.85;;;15.20;99.90;;;;;;5120466;27;20076;-64
2023/08/02 02:33:13;;;;;;;14.90;4.20;;;15.20;99.90;;;;;;5132223;27;20505;-64
2023/08/02 02:35:39;;;;;;;11.80;4.20;;;15.20;99.90;;;;;;5129096;27;20034;-64
2023/08/02 02:38:04;;;;;;;13.15;4.45;;;15.20;99.90;;;;;;5118223;27;20076;-64
2023/08/02 02:40:30;;;;;;;11.25;4.07;;;15.20;99.90;;;;;;5103484;27;20086;-64
2023/08/02 02:42:55;;;;;;;14.13;4.68;;;15.10;99.90;;;;;;5105419;27;20115;-64
2023/08/02 02:45:21;;;;;;;12.45;4.22;;;15.10;99.90;;;;;;5124495;27;20429;-64
2023/08/02 02:47:47;;;;;;;10.82;4.07;;;15.10;99.90;;;;;;5124684;27;20028;-66
2023/08/02 02:50:12;;;;;;;14.77;4.65;;;15.10;99.90;;;;;;5127328;27;20473;-64
2023/08/02 02:52:40;;;;;;;11.60;4.05;;;15.10;99.90;;;;;;5121009;27;20175;-65
2023/08/02 02:55:07;;;;;;;11.13;4.32;;;15.10;99.90;;;;;;5113700;27;20405;-64
2023/08/02 02:57:32;;;;;;;13.63;4.57;;;15.10;99.90;;;;;;5115648;27;20401;-65
2023/08/02 02:59:58;;;;;;;12.70;4.15;;;15.00;99.90;;;;;;5130556;27;20153;-65
2023/08/02 03:02:24;;;;;;;15.68;4.60;;;15.00;99.90;;;;;;5113679;27;20028;-65
2023/08/02 03:04:49;;;;;;;9.95;4.32;;;15.00;99.90;;;;;;5116296;27;20477;-64
2023/08/02 03:07:15;;;;;;;13.88;5.15;;;15.00;99.90;;;;;;5130368;27;20033;-65
2023/08/02 03:09:41;;;;;;;13.00;4.40;;;15.00;99.90;;;;;;5117361;27;20051;-65
2023/08/02 03:12:07;;;;;;;11.77;5.20;;;14.90;99.90;;;;;;5110579;28;20760;-65
2023/08/02 03:14:33;;;;;;;12.98;4.53;;;14.90;99.90;;;;;;5130225;27;20031;-64
2023/08/02 03:16:59;;;;;;;9.88;4.57;;;14.90;99.90;;;;;;5116382;27;20375;-64
2023/08/02 03:19:24;;;;;;;9.23;4.22;;;14.90;99.90;;;;;;5110152;28;20043;-64
2023/08/02 03:21:50;;;;;;;11.10;4.63;;;14.90;99.90;;;;;;5101779;27;20444;-64
2023/08/02 03:24:15;;;;;;;12.23;5.07;;;14.90;99.90;;;;;;5130475;27;20050;-64
2023/08/02 03:26:41;;;;;;;11.88;4.75;;;14.80;99.90;;;;;;5130836;27;20023;-65
2023/08/02 03:29:07;;;;;;;8.65;3.85;;;14.80;99.90;;;;;;5111734;27;20070;-65
2023/08/02 03:31:32;;;;;;;14.32;4.63;;;14.80;99.90;;;;;;5121326;27;20031;-66
2023/08/02 03:33:58;;;;;;;11.77;4.50;;;14.70;99.90;;;;;;5115822;27;20040;-64
2023/08/02 03:36:24;;;;;;;14.93;4.97;;;14.70;99.90;;;;;;5113025;27;20086;-65
2023/08/02 03:38:49;;;;;;;10.43;4.47;;;14.70;99.90;;;;;;5118589;27;20047;-65
2023/08/02 03:41:15;;;;;;;7.25;4.43;;;14.70;99.90;;;;;;5129655;27;20046;-65
2023/08/02 03:43:41;;;;;;;9.70;5.03;;;14.60;99.90;;;;;;5121065;27;20040;-65
2023/08/02 03:46:06;;;;;;;8.60;4.53;;;14.60;99.90;;;;;;5109944;28;20092;-66
2023/08/02 03:48:32;;;;;;;16.20;5.32;;;14.60;99.90;;;;;;5115673;27;20042;-64
2023/08/02 03:50:58;;;;;;;10.38;5.45;;;14.60;99.90;;;;;;5111244;28;20127;-64
2023/08/02 03:53:26;;;;;;;11.32;4.85;;;14.60;99.90;;;;;;5115532;27;20103;-66
2023/08/02 03:55:51;;;;;;;10.13;5.13;;;14.60;99.90;;;;;;5109671;28;20039;-64
2023/08/02 03:58:17;;;;;;;12.10;5.20;;;14.60;99.90;;;;;;5111142;28;20102;-64
2023/08/02 04:00:43;;;;;;;9.98;4.95;;;14.60;99.90;;;;;;5124438;27;20047;-65
2023/08/02 04:03:08;;;;;;;13.38;5.18;;;14.60;99.90;;;;;;5118272;27;20035;-65
2023/08/02 04:05:34;;;;;;;14.43;5.47;;;14.60;99.90;;;;;;5125219;28;20112;-65
2023/08/02 04:07:59;;;;;;;9.02;5.60;;;14.50;99.90;;;;;;5114411;28;20031;-65
2023/08/02 04:10:25;;;;;;;10.75;5.70;;;14.60;99.90;;;;;;5115561;28;20067;-64
2023/08/02 04:12:51;;;;;;;10.90;5.20;;;14.50;99.90;;;;;;5108886;28;20050;-65
2023/08/02 04:15:17;;;;;;;11.23;5.60;;;14.50;99.90;;;;;;5114060;28;20039;-64
2023/08/02 04:17:43;;;;;;;12.10;5.55;;;14.50;99.90;;;;;;5111291;28;20058;-65
2023/08/02 04:20:09;;;;;;;10.75;5.63;;;14.50;99.90;;;;;;5119321;28;20150;-64
2023/08/02 04:22:35;;;;;;;8.73;4.88;;;14.50;99.90;;;;;;5129175;28;20039;-66
2023/08/02 04:25:02;;;;;;;10.38;5.40;;;14.50;99.90;;;;;;5121661;28;20039;-64
2023/08/02 04:27:28;;;;;;;11.73;5.57;;;14.50;99.90;;;;;;5129295;28;20035;-66
2023/08/02 04:29:53;;;;;;;14.27;5.50;;;14.50;99.90;;;;;;5129375;28;20092;-66
2023/08/02 04:32:19;;;;;;;13.05;6.22;;;14.40;99.90;;;;;;5121471;28;20044;-65
2023/08/02 04:34:45;;;;;;;10.88;5.00;;;14.50;99.90;;;;;;5123333;28;20043;-64
2023/08/02 04:37:10;;;;;;;7.03;4.57;;;14.50;99.90;;;;;;5109329;28;20136;-64
2023/08/02 04:39:36;;;;;;;11.57;5.40;;;14.50;99.90;;;;;;5113596;28;20039;-64
2023/08/02 04:42:02;;;;;;;12.52;5.25;;;14.50;99.90;;;;;;5122365;28;20040;-65
2023/08/02 04:44:28;;;;;;;14.48;5.28;;;14.50;99.90;;;;;;5124621;28;20496;-64
2023/08/02 04:46:54;;;;;;;11.13;5.35;;;14.40;99.90;;;;;;5127837;28;20035;-65
2023/08/02 04:49:19;;;;;;;9.07;5.18;;;14.40;99.90;;;;;;5128325;28;20037;-65
2023/08/02 04:51:45;;;;;;;12.43;5.70;;;14.40;99.90;;;;;;5117501;27;20039;-65
2023/08/02 04:54:11;;;;;;;13.05;5.70;;;14.40;99.90;;;;;;5110683;28;20055;-66
2023/08/02 04:56:38;;;;;;;15.65;5.47;;;14.40;99.90;;;;;;5123309;27;20035;-65
2023/08/02 04:59:05;;;;;;;11.57;5.10;;;14.40;99.90;;;;;;5128551;27;20475;-65
2023/08/02 05:01:31;;;;;;;14.90;5.65;;;14.40;99.90;;;;;;5127241;27;20101;-64
2023/08/02 05:03:57;;;;;;;14.23;6.00;;;14.40;99.90;;;;;;5121100;27;20411;-64
2023/08/02 05:06:23;;;;;;;12.63;6.22;;;14.40;99.90;;;;;;5123576;27;20043;-64
2023/08/02 05:08:49;;;;;;;10.10;5.05;;;14.40;99.90;;;;;;5129883;27;20078;-63
2023/08/02 05:11:15;;;;;;;13.13;5.63;;;14.40;99.90;;;;;;5131251;27;20101;-65
2023/08/02 05:13:40;;;;;;;12.60;5.50;;;14.40;99.90;;;;;;5131604;27;20099;-65
2023/08/02 05:16:14;;;;;;;9.90;5.15;;;14.50;99.90;;;;;;5122959;27;20049;-64
2023/08/02 05:18:40;;;;;;;11.85;4.90;;;14.50;99.90;;;;;;5130530;27;20604;-64
2023/08/02 05:21:16;;;;;;;14.30;5.40;;;14.50;99.90;;;;;;5111592;27;20090;-64
2023/08/02 05:23:43;;;;;;;13.35;5.13;;;14.50;99.90;;;;;;5120273;27;20054;-65
2023/08/02 05:26:09;;;;;;;13.23;5.65;;;14.50;99.90;;;;;;5122042;27;20741;-65
2023/08/02 05:28:36;;;;;;;10.10;4.97;;;14.50;99.90;;;;;;5121970;27;20051;-64
2023/08/02 05:31:02;;;;;;;12.68;5.25;;;14.50;99.90;;;;;;5119170;27;20413;-65
2023/08/02 05:33:28;;;;;;;10.70;5.00;;;14.50;99.90;;;;;;5119301;27;20084;-64
2023/08/02 05:35:53;;;;;;;11.55;5.53;;;14.60;99.90;;;;;;5122531;27;20393;-64
2023/08/02 05:38:20;;;;;;;9.70;5.22;;;14.60;99.90;;;;;;5123716;27;20049;-64
2023/08/02 05:40:46;;;;;;;10.57;5.00;;;14.70;99.90;;;;;;5122240;27;20371;-64
2023/08/02 05:43:11;;;;;;;12.52;4.63;;;14.70;99.90;;;;;;5125064;27;20093;-64
2023/08/02 05:45:37;;;;;;;12.18;4.88;;;14.70;99.90;;;;;;5128047;27;20031;-66
2023/08/02 05:48:03;;;;;;;6.57;4.63;;;14.80;99.90;;;;;;5125310;27;20035;-65
2023/08/02 05:50:29;;;;;;;10.18;5.53;;;14.80;99.90;;;;;;5118462;27;20047;-64
2023/08/02 05:52:55;;;;;;;11.30;5.70;;;14.90;99.90;;;;;;5119216;27;20405;-64
2023/08/02 05:55:21;;;;;;;13.25;5.05;;;15.00;99.90;;;;;;5119786;27;20043;-65
2023/08/02 05:57:48;;;;;;;8.20;4.28;;;15.10;99.90;;;;;;5120693;27;20414;-65
2023/08/02 06:00:15;;;;;;;9.40;4.50;;;15.10;99.90;;;;;;5119327;27;20066;-64
2023/08/02 06:02:40;;;;;;;11.57;4.55;;;15.20;99.90;;;;;;5119089;27;20046;-65
2023/08/02 06:05:07;;;;;;;8.23;3.97;;;15.20;99.90;;;;;;5116386;27;20146;-65
2023/08/02 06:07:32;;;;;;;9.70;4.13;;;15.20;99.90;;;;;;5106345;27;20074;-65
2023/08/02 06:09:58;;;;;;;9.60;4.40;;;15.20;99.90;;;;;;5123739;27;20465;-65
2023/08/02 06:12:24;;;;;;;9.18;4.60;;;15.20;99.90;;;;;;5117027;27;20038;-64
2023/08/02 06:14:49;;;;;;;7.38;4.32;;;15.20;99.90;;;;;;5111207;27;20035;-65
2023/08/02 06:17:15;;;;;;;8.65;4.03;;;15.20;99.90;;;;;;5119685;27;20137;-65
2023/08/02 06:19:41;;;;;;;8.93;4.28;;;15.20;99.90;;;;;;5121407;27;20188;-64
2023/08/02 06:22:07;;;;;;;9.60;4.40;;;15.20;99.90;;;;;;5122158;27;20047;-64
2023/08/02 06:24:33;;;;;;;8.88;4.30;;;15.20;99.90;;;;;;5113529;27;20039;-65
2023/08/02 06:26:58;;;;;;;7.35;4.13;;;15.30;99.90;;;;;;5124492;27;20057;-65
2023/08/02 06:29:24;;;;;;;8.25;4.10;;;15.30;99.90;;;;;;5145467;27;20034;-64
2023/08/02 06:31:49;;;;;;;9.00;4.28;;;15.30;99.90;;;;;;5130496;27;20432;-64
2023/08/02 06:34:15;;;;;;;7.93;4.00;;;15.30;99.90;;;;;;5130562;27;20771;-65
2023/08/02 06:36:41;;;;;;;9.00;4.05;;;15.30;99.90;;;;;;5124641;27;20091;-64
2023/08/02 06:39:06;;;;;;;7.55;4.22;;;15.30;99.90;;;;;;5129786;27;20083;-65
2023/08/02 06:41:32;;;;;;;8.18;4.00;;;15.30;99.90;;;;;;5116043;27;20438;-63
2023/08/02 06:43:57;;;;;;;6.65;4.00;;;15.30;99.90;;;;;;5131679;27;20042;-63
2023/08/02 06:46:23;;;;;;;8.57;3.33;;;15.30;99.90;;;;;;5117247;27;20039;-65
2023/08/02 06:48:49;;;;;;;7.80;3.67;;;15.30;99.90;;;;;;5118764;27;20660;-65
2023/08/02 06:51:14;;;;;;;8.23;3.55;;;15.30;99.90;;;;;;5125155;27;20045;-64
2023/08/02 06:53:40;;;;;;;10.30;4.07;;;15.30;99.90;;;;;;5125149;27;20099;-64
2023/08/02 06:56:18;;;;;;;9.40;3.60;;;15.30;99.90;;;;;;5130816;27;21211;-64
2023/08/02 06:58:44;;;;;;;7.15;3.55;;;15.30;99.90;;;;;;5146732;27;20031;-64
2023/08/02 07:01:20;;;;;;;8.73;3.78;;;15.30;99.90;;;;;;5132096;27;20121;-64
2023/08/02 07:03:46;;;;;;;6.47;3.75;;;15.30;99.90;;;;;;5128580;27;20050;-64
2023/08/02 07:06:14;;;;;;;8.60;3.70;;;15.30;99.90;;;;;;5129298;27;20573;-65
2023/08/02 07:08:41;;;;;;;6.97;3.60;;;15.20;99.90;;;;;;5122772;27;20047;-64
2023/08/02 07:11:07;;;;;;;7.35;3.60;;;15.20;99.90;;;;;;5121378;27;20497;-64
2023/08/02 07:13:33;;;;;;;13.10;4.35;;;15.20;99.90;;;;;;5117165;27;20046;-63
2023/08/02 07:15:59;;;;;;;9.85;3.80;;;15.20;99.90;;;;;;5114057;27;20134;-64
2023/08/02 07:18:25;;;;;;;9.88;3.78;;;15.20;99.90;;;;;;5125838;27;20129;-63
2023/08/02 07:20:51;;;;;;;8.77;3.80;;;15.20;99.90;;;;;;5114826;27;20457;-64
2023/08/02 07:23:17;;;;;;;11.20;4.20;;;15.20;99.90;;;;;;5097551;27;20047;-64
2023/08/02 07:25:42;;;;;;;8.32;4.03;;;15.10;99.90;;;;;;5113548;27;20047;-65
2023/08/02 07:28:08;;;;;;;8.88;4.22;;;15.10;99.90;;;;;;5128327;27;20122;-66
2023/08/02 07:30:34;;;;;;;7.78;4.55;;;15.10;99.90;;;;;;5125704;27;20049;-66
2023/08/02 07:32:59;;;;;;;9.50;4.00;;;15.10;99.90;;;;;;5121735;27;20043;-66
2023/08/02 07:35:25;;;;;;;9.27;4.00;;;15.00;99.90;;;;;;5131314;27;20066;-64
2023/08/02 07:37:50;;;;;;;9.30;4.60;;;15.00;99.90;;;;;;5115418;27;20046;-65
2023/08/02 07:40:16;;;;;;;9.18;4.80;;;15.00;99.90;;;;;;5112273;27;20092;-64
2023/08/02 07:42:42;;;;;;;6.43;4.07;;;14.90;99.90;;;;;;5113803;27;20088;-64
2023/08/02 07:45:09;;;;;;;7.30;4.05;;;15.00;99.90;;;;;;5147374;27;20074;-63
2023/08/02 07:47:35;;;;;;;8.77;4.18;;;14.90;99.90;;;;;;5123970;27;20066;-64
2023/08/02 07:50:02;;;;;;;8.85;4.32;;;14.90;99.90;;;;;;5114245;27;20039;-63
2023/08/02 07:52:28;;;;;;;9.35;4.10;;;14.90;99.90;;;;;;5116819;27;20034;-64
2023/08/02 07:54:54;;;;;;;8.32;4.25;;;14.90;99.90;;;;;;5113054;27;20442;-63
2023/08/02 07:57:22;;;;;;;8.23;4.20;;;14.90;99.90;;;;;;5121085;27;20043;-64
2023/08/02 07:59:47;;;;;;;11.30;4.20;;;14.90;99.90;;;;;;5133458;27;20038;-64
2023/08/02 08:02:14;;;;;;;8.75;4.32;;;14.90;99.90;;;;;;5128556;27;20039;-64
2023/08/02 08:04:41;;;;;;;10.02;4.25;;;14.90;99.90;;;;;;5151475;27;20623;-63
2023/08/02 08:07:06;;;;;;;12.07;4.28;;;14.90;99.90;;;;;;5125733;27;20125;-64
2023/08/02 08:09:33;;;;;;;9.32;3.95;;;14.90;99.90;;;;;;5113003;27;20126;-64
2023/08/02 08:12:03;;;;;;;7.53;3.75;;;14.90;99.90;;;;;;5143767;27;20155;-64
2023/08/02 08:14:29;;;;;;;7.82;3.92;;;14.90;99.90;;;;;;5101145;27;20053;-64
2023/08/02 08:16:56;;;;;;;7.22;3.63;;;14.90;99.90;;;;;;5125735;27;20043;-64
2023/08/02 08:19:22;;;;;;;9.13;3.88;;;14.90;99.90;;;;;;5132629;27;20485;-64
2023/08/02 08:21:47;;;;;;;8.23;4.07;;;14.90;99.90;;;;;;5125239;27;20081;-63
2023/08/02 08:24:13;;;;;;;9.60;4.63;;;14.90;99.90;;;;;;5127492;27;20035;-64
2023/08/02 08:26:39;;;;;;;8.75;4.00;;;14.90;99.90;;;;;;5146827;27;20031;-64
2023/08/02 08:29:04;;;;;;;9.52;4.93;;;15.00;99.90;;;;;;5136394;27;20038;-64
2023/08/02 08:31:30;;;;;;;9.77;4.75;;;15.00;99.90;;;;;;5119289;27;20031;-64
2023/08/02 08:33:55;;;;;;;7.63;4.57;;;15.10;99.90;;;;;;5139714;27;20435;-64
2023/08/02 08:36:21;;;;;;;10.25;5.30;;;15.10;99.90;;;;;;5119296;27;20552;-64
2023/08/02 08:38:47;;;;;;;9.60;5.00;;;15.20;99.90;;;;;;5129943;27;20050;-64
2023/08/02 08:41:14;;;;;;;9.88;4.93;;;15.20;99.90;;;;;;5124700;27;20445;-64
2023/08/02 08:43:40;;;;;;;10.07;5.57;;;15.20;99.90;;;;;;5153198;27;20091;-65
2023/08/02 08:46:07;;;;;;;8.20;5.05;;;15.20;99.90;;;;;;5126634;27;20473;-64
2023/08/02 08:48:36;;;;;;;9.95;5.20;;;15.20;99.90;;;;;;5135839;27;20047;-64
2023/08/02 08:51:03;;;;;;;8.80;5.32;;;15.20;99.90;;;;;;5114612;27;20038;-64
2023/08/02 08:53:33;;;;;;;6.90;5.22;;;15.20;99.90;;;;;;5117670;27;20076;-64
2023/08/02 08:56:00;;;;;;;8.85;5.38;;;15.20;99.90;;;;;;5125659;27;20095;-64
2023/08/02 08:58:26;;;;;;;11.20;5.63;;;15.20;99.90;;;;;;5136683;27;20218;-64
2023/08/02 09:00:54;;;;;;;10.18;5.63;;;15.20;99.90;;;;;;5127576;27;20039;-64
2023/08/02 09:03:21;;;;;;;11.00;5.90;;;15.10;99.90;;;;;;5142213;27;20066;-64
2023/08/02 09:05:47;;;;;;;12.73;5.93;;;15.10;99.90;;;;;;5118726;27;20094;-64
2023/08/02 09:08:13;;;;;;;9.30;6.65;;;15.10;99.90;;;;;;5121445;27;21004;-63
2023/08/02 09:10:39;;;;;;;8.23;5.60;;;15.20;99.90;;;;;;5123428;27;20046;-63
2023/08/02 09:13:05;;;;;;;14.23;5.70;;;15.20;99.90;;;;;;5121087;27;20077;-64
2023/08/02 09:15:31;;;;;;;8.05;5.78;;;15.20;99.90;;;;;;5142288;27;20134;-64
2023/08/02 09:17:56;;;;;;;9.27;5.95;;;15.30;99.90;;;;;;5121974;27;20149;-63
2023/08/02 09:20:24;;;;;;;8.18;5.97;;;15.40;99.90;;;;;;5122562;27;20047;-63
2023/08/02 09:22:50;;;;;;;10.75;5.90;;;15.40;99.90;;;;;;5112641;27;20497;-64
2023/08/02 09:25:27;;;;;;;7.57;5.45;;;15.50;99.90;;;;;;5141729;27;20034;-63
2023/08/02 09:28:00;;;;;;;7.65;5.53;;;15.50;99.90;;;;;;5122382;27;20565;-64
2023/08/02 09:30:32;;;;;;;7.85;5.10;;;15.50;99.90;;;;;;5121393;27;20050;-63
2023/08/02 09:33:08;;;;;;;7.32;4.88;;;15.50;99.90;;;;;;5118309;27;20124;-65
2023/08/02 09:35:50;;;;;;;6.65;4.43;;;15.50;99.90;;;;;;5119871;27;20047;-67
2023/08/02 09:38:16;;;;;;;7.35;4.50;;;15.50;99.90;;;;;;5118039;27;20062;-65
2023/08/02 09:40:47;;;;;;;6.80;4.28;;;15.50;99.90;;;;;;5122141;27;20035;-64
2023/08/02 09:43:13;;;;;;;6.05;3.95;;;15.50;99.90;;;;;;5116056;27;20039;-65
2023/08/02 09:45:39;;;;;;;7.00;4.00;;;15.50;99.90;;;;;;5117872;27;20074;-64
2023/08/02 09:48:05;;;;;;;7.55;4.50;;;15.60;99.90;;;;;;5128879;27;20531;-64
2023/08/02 09:50:31;;;;;;;6.03;4.05;;;15.60;99.90;;;;;;5130783;27;20535;-65
2023/08/02 09:52:57;;;;;;;7.88;4.00;;;15.70;99.90;;;;;;5120292;27;20058;-64
2023/08/02 09:55:23;;;;;;;5.85;4.43;;;15.70;99.90;;;;;;5131359;27;20035;-64
2023/08/02 09:57:49;;;;;;;5.97;3.83;;;15.70;99.90;;;;;;5122201;27;20039;-64
2023/08/02 10:00:17;;;;;;;8.18;3.30;;;15.80;99.90;;;;;;5135078;27;20042;-65
2023/08/02 10:02:43;;;;;;;3.50;3.08;;;15.80;99.90;;;;;;5145952;27;20035;-64
2023/08/02 10:05:15;;;;;;;3.85;3.05;;;15.80;99.90;;;;;;5105921;27;20058;-64
2023/08/02 10:07:51;;;;;;;2.80;2.42;;;15.80;99.90;;;;;;5137920;27;20059;-64
2023/08/02 10:10:26;;;;;;;2.83;2.33;;;15.80;99.90;;;;;;5113518;27;20105;-65
2023/08/02 10:12:56;;;;;;;5.25;2.80;;;15.90;99.90;;;;;;5126224;27;20055;-64
2023/08/02 10:15:22;;;;;;;2.63;2.17;;;15.90;99.90;;;;;;5134467;27;20114;-64
2023/08/02 10:17:48;;;;;;;2.72;2.53;;;15.90;99.90;;;;;;5135582;27;20451;-64
2023/08/02 10:20:15;;;;;;;4.10;2.50;;;15.90;99.90;;;;;;5121820;27;20080;-64
2023/08/02 10:22:41;;;;;;;3.72;2.63;;;15.90;99.90;;;;;;5124604;27;20047;-65
2023/08/02 10:25:08;;;;;;;3.30;2.35;;;15.90;99.90;;;;;;5122007;27;20130;-64
2023/08/02 10:27:35;;;;;;;3.47;2.50;;;15.90;99.90;;;;;;5115594;27;20039;-63
2023/08/02 10:30:04;;;;;;;3.25;2.33;;;16.00;99.90;;;;;;5140661;27;20027;-63
2023/08/02 10:32:29;;;;;;;2.75;2.55;;;16.00;99.90;;;;;;5127368;27;20034;-64
2023/08/02 10:34:56;;;;;;;2.55;2.35;;;16.00;99.90;;;;;;5123755;27;20095;-64
2023/08/02 10:37:22;;;;;;;3.30;2.10;;;16.10;99.90;;;;;;5128699;27;20512;-64
2023/08/02 10:39:48;;;;;;;2.70;2.10;;;16.20;99.90;;;;;;5122988;27;20081;-64
2023/08/02 10:42:16;;;;;;;2.88;1.90;;;16.30;99.90;;;;;;5114360;27;20568;-64
2023/08/02 10:44:57;;;;;;;2.17;1.80;;;16.30;99.90;;;;;;5117040;27;20033;-64
2023/08/02 10:47:30;;;;;;;3.15;1.80;;;16.30;99.90;;;;;;5122828;27;20389;-64
2023/08/02 10:49:56;;;;;;;1.60;1.50;;;16.20;99.90;;;;;;5123908;27;20042;-64
2023/08/02 10:52:25;;;;;;;1.70;1.60;;;16.20;99.90;;;;;;5136266;27;20118;-63
2023/08/02 10:55:11;;;;;;;2.50;1.90;;;16.20;99.90;;;;;;5121895;27;20080;-64
2023/08/02 10:57:39;;;;;;;2.17;1.70;;;16.20;99.90;;;;;;5119385;27;20039;-64
2023/08/02 11:00:15;;;;;;;3.72;1.65;;;16.30;99.90;;;;;;5141958;27;20042;-64
2023/08/02 11:02:48;;;;;;;1.50;1.25;;;16.40;99.90;;;;;;5116241;27;20057;-64
2023/08/02 11:05:40;;;;;;;1.52;1.42;;;16.40;99.90;;;;;;5118411;27;20063;-64
2023/08/02 11:08:07;;;;;;;1.77;1.60;;;16.50;99.90;;;;;;5129163;27;20421;-64
2023/08/02 11:10:45;;;;;;;1.83;1.70;;;16.60;99.90;;;;;;5128247;27;20505;-64
2023/08/02 11:13:11;;;;;;;1.83;1.73;;;16.60;99.90;;;;;;5133384;27;20520;-64
2023/08/02 11:15:36;;;;;;;3.47;1.90;;;16.60;99.90;;;;;;5133303;27;20038;-64
2023/08/02 11:18:03;;;;;;;3.92;2.13;;;16.80;99.90;;;;;;5133114;27;20046;-63
2023/08/02 11:20:32;;;;;;;4.25;1.80;;;16.80;99.90;;;;;;5133203;27;20386;-63
2023/08/02 11:22:58;;;;;;;2.40;2.20;;;16.90;99.90;;;;;;5114691;27;20046;-63
2023/08/02 11:25:24;;;;;;;2.50;2.22;;;17.00;99.90;;;;;;5121089;27;20030;-63
2023/08/02 11:28:04;;;;;;;2.50;2.30;;;17.00;99.90;;;;;;5131785;27;20081;-63
2023/08/02 11:30:30;;;;;;;2.67;2.47;;;17.20;99.90;;;;;;5133750;27;20111;-64
2023/08/02 11:32:55;;;;;;;3.17;2.95;;;17.30;99.90;;;;;;5131608;27;20486;-63
2023/08/02 11:35:21;;;;;;;3.22;2.70;;;17.60;99.90;;;;;;5116991;27;20574;-63
2023/08/02 11:37:47;;;;;;;3.30;3.10;;;17.70;99.90;;;;;;5112583;27;20393;-64
2023/08/02 11:40:14;;;;;;;3.70;3.17;;;17.80;99.90;;;;;;5113002;27;20035;-63
2023/08/02 11:42:47;;;;;;;3.55;3.25;;;18.10;99.90;;;;;;5132795;27;20035;-63
2023/08/02 11:45:12;;;;;;;3.47;3.17;;;18.10;99.90;;;;;;5130748;27;20039;-64
2023/08/02 11:47:38;;;;;;;3.53;3.22;;;18.10;99.90;;;;;;5133378;27;20054;-64
2023/08/02 11:50:04;;;;;;;3.65;3.35;;;18.20;99.90;;;;;;5133181;27;20038;-64
2023/08/02 11:52:32;;;;;;;3.30;3.10;;;18.30;99.90;;;;;;5133381;27;20035;-64
2023/08/02 11:54:58;;;;;;;3.35;3.15;;;18.40;99.90;;;;;;5124413;27;20035;-64
2023/08/02 11:57:25;;;;;;;3.60;3.40;;;18.50;99.90;;;;;;5113060;27;20063;-63
2023/08/02 11:59:54;;;;;;;3.80;3.50;;;18.60;99.90;;;;;;5123424;27;20027;-64
2023/08/02 12:02:31;;;;;;;3.97;3.58;;;18.60;99.90;;;;;;5094914;27;20064;-64
2023/08/02 12:04:57;;;;;;;4.00;3.70;;;18.70;99.90;;;;;;5115160;27;20093;-65
2023/08/02 12:07:27;;;;;;;3.70;3.40;;;18.70;99.90;;;;;;5133146;27;20477;-65
2023/08/02 12:09:53;;;;;;;3.90;3.60;;;18.80;99.90;;;;;;5130076;27;20049;-63
2023/08/02 12:12:19;;;;;;;3.90;3.60;;;18.90;99.90;;;;;;5151313;27;20034;-64
2023/08/02 12:14:45;;;;;;;3.65;3.35;;;19.20;99.90;;;;;;5147902;27;20512;-63
2023/08/02 12:17:22;;;;;;;3.05;2.83;;;19.50;99.90;;;;;;5121653;27;20054;-64
2023/08/02 12:19:48;;;;;;;2.50;2.40;;;19.80;99.90;;;;;;5135571;27;20050;-64
2023/08/02 12:22:15;;;;;;;3.28;2.97;;;19.90;99.90;;;;;;5118664;27;20618;-65
2023/08/02 12:24:41;;;;;;;2.90;2.70;;;20.00;99.90;;;;;;5114933;27;20031;-64
2023/08/02 12:27:15;;;;;;;2.85;2.63;;;20.00;99.90;;;;;;5114560;27;20122;-63
2023/08/02 12:29:42;;;;;;;3.67;2.25;;;20.00;99.90;;;;;;5138809;27;20048;-63
2023/08/02 12:32:09;;;;;;;2.67;2.33;;;19.90;99.90;;;;;;5103957;27;20520;-63
2023/08/02 12:34:36;;;;;;;3.00;2.28;;;20.00;99.90;;;;;;5127302;27;20038;-63
2023/08/02 12:37:02;;;;;;;2.60;2.40;;;20.00;99.90;;;;;;5127581;27;20039;-63
2023/08/02 12:39:28;;;;;;;2.80;2.25;;;20.00;99.90;;;;;;5112173;27;20031;-63
2023/08/02 12:41:54;;;;;;;2.45;2.25;;;19.90;99.90;;;;;;5145138;27;20041;-63